Terminal Aerodrome Forecast
Issued by NWS Mt. Holly, NJ

Home | Current Version | Previous Version | Text Only | Print | Product List | Glossary On
Versions: 1 2 3 4 5 6 7 8 9 10 11 12 13
000
FTUS41 KPHI 282325
TAFILG
TAF
KILG 282325Z 2900/2924 16010KT P6SM FEW050
     FM290300 19004KT P6SM SCT250
      TEMPO 2908/2911 4SM BR
     FM291200 19006KT P6SM SCT250
     FM291500 19008KT P6SM SCT050 BKN200
     FM292000 16006KT P6SM VCSH FEW030 BKN050=

USA.gov is the U.S. government's official web portal to all federal, state and local government web resources and services.